sensor_id;sensor_type;location;lat;lon;timestamp;temperature;humidity
262;DHT22;114;48.260;10.988;2023-08-08T00:00:39;11.10;47.60
262;DHT22;114;48.260;10.988;2023-08-08T00:03:05;11.00;49.50
262;DHT22;114;48.260;10.988;2023-08-08T00:05:30;11.00;49.10
262;DHT22;114;48.260;10.988;2023-08-08T00:07:56;11.00;49.00
262;DHT22;114;48.260;10.988;2023-08-08T00:10:22;11.00;48.90
262;DHT22;114;48.260;10.988;2023-08-08T00:12:48;10.90;48.70
262;DHT22;114;48.260;10.988;2023-08-08T00:15:13;10.90;49.70
262;DHT22;114;48.260;10.988;2023-08-08T00:17:39;10.90;49.60
262;DHT22;114;48.260;10.988;2023-08-08T00:20:06;10.90;49.70
262;DHT22;114;48.260;10.988;2023-08-08T00:22:32;10.90;48.60
262;DHT22;114;48.260;10.988;2023-08-08T00:24:58;10.80;49.00
262;DHT22;114;48.260;10.988;2023-08-08T00:27:24;10.80;50.30
262;DHT22;114;48.260;10.988;2023-08-08T00:29:50;10.70;50.70
262;DHT22;114;48.260;10.988;2023-08-08T00:32:17;10.80;50.70
262;DHT22;114;48.260;10.988;2023-08-08T00:34:43;10.80;50.30
262;DHT22;114;48.260;10.988;2023-08-08T00:37:08;10.70;50.50
262;DHT22;114;48.260;10.988;2023-08-08T00:39:34;10.70;51.50
262;DHT22;114;48.260;10.988;2023-08-08T00:42:00;10.60;51.90
262;DHT22;114;48.260;10.988;2023-08-08T00:44:26;10.60;52.50
262;DHT22;114;48.260;10.988;2023-08-08T00:46:52;10.60;51.40
262;DHT22;114;48.260;10.988;2023-08-08T00:49:17;10.60;51.50
262;DHT22;114;48.260;10.988;2023-08-08T00:51:43;10.60;51.50
262;DHT22;114;48.260;10.988;2023-08-08T00:54:10;10.60;51.50
262;DHT22;114;48.260;10.988;2023-08-08T00:56:36;10.50;52.90
262;DHT22;114;48.260;10.988;2023-08-08T00:59:02;10.50;53.00
262;DHT22;114;48.260;10.988;2023-08-08T01:01:28;10.40;53.80
262;DHT22;114;48.260;10.988;2023-08-08T01:03:54;10.40;55.90
262;DHT22;114;48.260;10.988;2023-08-08T01:06:34;10.40;56.00
262;DHT22;114;48.260;10.988;2023-08-08T01:09:24;10.30;57.90
262;DHT22;114;48.260;10.988;2023-08-08T01:11:51;10.30;58.10
262;DHT22;114;48.260;10.988;2023-08-08T01:14:17;10.30;58.80
262;DHT22;114;48.260;10.988;2023-08-08T01:16:45;10.20;59.10
262;DHT22;114;48.260;10.988;2023-08-08T01:19:23;10.20;58.50
262;DHT22;114;48.260;10.988;2023-08-08T01:21:53;10.10;59.70
262;DHT22;114;48.260;10.988;2023-08-08T01:24:23;10.10;59.80
262;DHT22;114;48.260;10.988;2023-08-08T01:26:51;10.00;60.20
262;DHT22;114;48.260;10.988;2023-08-08T01:29:17;10.00;61.80
262;DHT22;114;48.260;10.988;2023-08-08T01:31:43;10.00;61.80
262;DHT22;114;48.260;10.988;2023-08-08T01:34:08;10.00;62.50
262;DHT22;114;48.260;10.988;2023-08-08T01:36:54;10.00;62.40
262;DHT22;114;48.260;10.988;2023-08-08T01:39:25;10.00;61.50
262;DHT22;114;48.260;10.988;2023-08-08T01:41:53;9.90;62.40
262;DHT22;114;48.260;10.988;2023-08-08T01:44:19;10.00;61.30
262;DHT22;114;48.260;10.988;2023-08-08T01:46:46;9.80;61.60
262;DHT22;114;48.260;10.988;2023-08-08T01:49:12;9.90;60.80
262;DHT22;114;48.260;10.988;2023-08-08T01:51:38;9.90;60.20
262;DHT22;114;48.260;10.988;2023-08-08T01:54:04;9.90;60.30
262;DHT22;114;48.260;10.988;2023-08-08T01:56:30;9.90;60.40
262;DHT22;114;48.260;10.988;2023-08-08T01:58:56;9.90;60.20
262;DHT22;114;48.260;10.988;2023-08-08T02:01:22;9.90;61.10
262;DHT22;114;48.260;10.988;2023-08-08T02:03:47;9.80;60.40
262;DHT22;114;48.260;10.988;2023-08-08T02:06:13;9.80;61.00
262;DHT22;114;48.260;10.988;2023-08-08T02:08:39;9.80;61.40
262;DHT22;114;48.260;10.988;2023-08-08T02:11:04;9.70;62.80
262;DHT22;114;48.260;10.988;2023-08-08T02:13:30;9.70;62.90
262;DHT22;114;48.260;10.988;2023-08-08T02:15:56;9.70;63.80
262;DHT22;114;48.260;10.988;2023-08-08T02:18:23;9.70;62.90
262;DHT22;114;48.260;10.988;2023-08-08T02:20:49;9.70;62.70
262;DHT22;114;48.260;10.988;2023-08-08T02:23:15;9.70;62.80
262;DHT22;114;48.260;10.988;2023-08-08T02:25:41;9.80;62.40
262;DHT22;114;48.260;10.988;2023-08-08T02:28:06;9.80;61.00
262;DHT22;114;48.260;10.988;2023-08-08T02:30:32;9.90;60.20
262;DHT22;114;48.260;10.988;2023-08-08T02:32:58;10.00;58.00
262;DHT22;114;48.260;10.988;2023-08-08T02:35:24;10.00;55.70
262;DHT22;114;48.260;10.988;2023-08-08T02:37:49;10.20;54.30
262;DHT22;114;48.260;10.988;2023-08-08T02:40:15;10.30;50.80
262;DHT22;114;48.260;10.988;2023-08-08T02:42:41;10.30;49.80
262;DHT22;114;48.260;10.988;2023-08-08T02:45:07;10.40;47.50
262;DHT22;114;48.260;10.988;2023-08-08T02:47:33;10.50;44.30
262;DHT22;114;48.260;10.988;2023-08-08T02:49:58;10.60;43.00
262;DHT22;114;48.260;10.988;2023-08-08T02:52:24;10.60;42.00
262;DHT22;114;48.260;10.988;2023-08-08T02:54:51;10.60;41.40
262;DHT22;114;48.260;10.988;2023-08-08T02:57:17;10.60;41.90
262;DHT22;114;48.260;10.988;2023-08-08T02:59:42;10.60;41.90
262;DHT22;114;48.260;10.988;2023-08-08T03:02:08;10.60;42.60
262;DHT22;114;48.260;10.988;2023-08-08T03:04:34;10.60;40.70
262;DHT22;114;48.260;10.988;2023-08-08T03:06:59;10.60;42.50
262;DHT22;114;48.260;10.988;2023-08-08T03:09:29;10.60;43.30
262;DHT22;114;48.260;10.988;2023-08-08T03:11:55;10.60;42.00
262;DHT22;114;48.260;10.988;2023-08-08T03:14:21;10.70;42.00
262;DHT22;114;48.260;10.988;2023-08-08T03:16:47;10.70;39.70
262;DHT22;114;48.260;10.988;2023-08-08T03:19:12;10.70;39.40
262;DHT22;114;48.260;10.988;2023-08-08T03:21:38;10.80;37.90
262;DHT22;114;48.260;10.988;2023-08-08T03:24:04;10.90;35.40
262;DHT22;114;48.260;10.988;2023-08-08T03:26:30;10.90;36.20
262;DHT22;114;48.260;10.988;2023-08-08T03:28:55;10.90;35.80
262;DHT22;114;48.260;10.988;2023-08-08T03:31:21;10.90;35.60
262;DHT22;114;48.260;10.988;2023-08-08T03:33:47;10.90;34.20
262;DHT22;114;48.260;10.988;2023-08-08T03:36:13;11.00;33.30
262;DHT22;114;48.260;10.988;2023-08-08T03:38:40;11.00;32.50
262;DHT22;114;48.260;10.988;2023-08-08T03:41:06;11.00;32.50
262;DHT22;114;48.260;10.988;2023-08-08T03:43:31;11.00;32.40
262;DHT22;114;48.260;10.988;2023-08-08T03:45:57;11.00;31.50
262;DHT22;114;48.260;10.988;2023-08-08T03:48:23;11.00;31.90
262;DHT22;114;48.260;10.988;2023-08-08T03:50:49;11.00;31.90
262;DHT22;114;48.260;10.988;2023-08-08T03:53:14;11.00;31.80
262;DHT22;114;48.260;10.988;2023-08-08T03:55:40;11.00;31.40
262;DHT22;114;48.260;10.988;2023-08-08T03:58:06;11.00;31.50
262;DHT22;114;48.260;10.988;2023-08-08T04:00:32;11.10;32.20
262;DHT22;114;48.260;10.988;2023-08-08T04:02:58;11.10;32.60
262;DHT22;114;48.260;10.988;2023-08-08T04:05:24;11.10;32.10
262;DHT22;114;48.260;10.988;2023-08-08T04:07:49;11.10;31.40
262;DHT22;114;48.260;10.988;2023-08-08T04:10:15;11.10;32.00
262;DHT22;114;48.260;10.988;2023-08-08T04:12:41;11.20;31.30
262;DHT22;114;48.260;10.988;2023-08-08T04:15:07;11.20;29.30
262;DHT22;114;48.260;10.988;2023-08-08T04:17:33;11.20;30.00
262;DHT22;114;48.260;10.988;2023-08-08T04:19:59;11.20;30.60
262;DHT22;114;48.260;10.988;2023-08-08T04:22:24;11.30;29.90
262;DHT22;114;48.260;10.988;2023-08-08T04:24:50;11.30;28.30
262;DHT22;114;48.260;10.988;2023-08-08T04:27:16;11.40;28.50
262;DHT22;114;48.260;10.988;2023-08-08T04:29:42;11.40;27.80
262;DHT22;114;48.260;10.988;2023-08-08T04:32:07;11.40;27.30
262;DHT22;114;48.260;10.988;2023-08-08T04:34:33;11.50;26.20
262;DHT22;114;48.260;10.988;2023-08-08T04:36:59;11.50;26.40
262;DHT22;114;48.260;10.988;2023-08-08T04:39:25;11.50;27.20
262;DHT22;114;48.260;10.988;2023-08-08T04:41:50;11.50;26.20
262;DHT22;114;48.260;10.988;2023-08-08T04:44:16;11.50;26.30
262;DHT22;114;48.260;10.988;2023-08-08T04:46:42;11.60;26.40
262;DHT22;114;48.260;10.988;2023-08-08T04:49:08;11.60;26.30
262;DHT22;114;48.260;10.988;2023-08-08T04:51:33;11.70;25.30
262;DHT22;114;48.260;10.988;2023-08-08T04:53:59;11.70;25.60
262;DHT22;114;48.260;10.988;2023-08-08T04:56:25;11.60;26.00
262;DHT22;114;48.260;10.988;2023-08-08T04:58:51;11.70;27.70
262;DHT22;114;48.260;10.988;2023-08-08T05:01:16;11.60;27.60
262;DHT22;114;48.260;10.988;2023-08-08T05:03:43;11.70;27.50
262;DHT22;114;48.260;10.988;2023-08-08T05:06:09;11.80;26.80
262;DHT22;114;48.260;10.988;2023-08-08T05:08:35;11.90;25.00
262;DHT22;114;48.260;10.988;2023-08-08T05:11:00;12.10;23.70
262;DHT22;114;48.260;10.988;2023-08-08T05:13:26;12.10;23.30
262;DHT22;114;48.260;10.988;2023-08-08T05:15:52;12.20;23.00
262;DHT22;114;48.260;10.988;2023-08-08T05:18:19;12.20;23.10
262;DHT22;114;48.260;10.988;2023-08-08T05:20:45;12.30;21.50
262;DHT22;114;48.260;10.988;2023-08-08T05:23:11;12.30;22.10
262;DHT22;114;48.260;10.988;2023-08-08T05:25:37;12.20;22.80
262;DHT22;114;48.260;10.988;2023-08-08T05:28:04;12.20;24.20
262;DHT22;114;48.260;10.988;2023-08-08T05:30:30;12.30;23.40
262;DHT22;114;48.260;10.988;2023-08-08T05:32:56;12.30;24.50
262;DHT22;114;48.260;10.988;2023-08-08T05:35:21;12.30;23.90
262;DHT22;114;48.260;10.988;2023-08-08T05:37:47;12.40;21.60
262;DHT22;114;48.260;10.988;2023-08-08T05:40:13;12.50;20.40
262;DHT22;114;48.260;10.988;2023-08-08T05:42:39;12.60;19.40
262;DHT22;114;48.260;10.988;2023-08-08T05:45:06;12.70;20.70
262;DHT22;114;48.260;10.988;2023-08-08T05:47:32;12.80;17.90
262;DHT22;114;48.260;10.988;2023-08-08T05:49:58;12.90;16.30
262;DHT22;114;48.260;10.988;2023-08-08T05:52:24;13.00;16.30
262;DHT22;114;48.260;10.988;2023-08-08T05:54:49;13.30;13.00
262;DHT22;114;48.260;10.988;2023-08-08T05:57:15;13.40;12.40
262;DHT22;114;48.260;10.988;2023-08-08T05:59:41;13.60;9.60
262;DHT22;114;48.260;10.988;2023-08-08T06:02:10;13.50;12.10
262;DHT22;114;48.260;10.988;2023-08-08T06:04:36;13.60;10.40
262;DHT22;114;48.260;10.988;2023-08-08T06:07:01;13.70;9.50
262;DHT22;114;48.260;10.988;2023-08-08T06:09:27;13.70;7.10
262;DHT22;114;48.260;10.988;2023-08-08T06:11:53;13.70;6.20
262;DHT22;114;48.260;10.988;2023-08-08T06:14:19;13.70;6.50
262;DHT22;114;48.260;10.988;2023-08-08T06:16:45;13.70;6.80
262;DHT22;114;48.260;10.988;2023-08-08T06:19:11;13.70;9.70
262;DHT22;114;48.260;10.988;2023-08-08T06:21:40;13.70;8.10
262;DHT22;114;48.260;10.988;2023-08-08T06:24:06;13.80;9.40
262;DHT22;114;48.260;10.988;2023-08-08T06:26:31;13.90;12.30
262;DHT22;114;48.260;10.988;2023-08-08T06:28:57;14.10;10.70
262;DHT22;114;48.260;10.988;2023-08-08T06:31:23;14.00;5.90
262;DHT22;114;48.260;10.988;2023-08-08T06:33:49;14.20;5.30
262;DHT22;114;48.260;10.988;2023-08-08T06:36:14;14.30;4.30
262;DHT22;114;48.260;10.988;2023-08-08T06:38:40;14.30;3.00
262;DHT22;114;48.260;10.988;2023-08-08T06:41:06;14.60;3.70
262;DHT22;114;48.260;10.988;2023-08-08T06:43:31;15.10;2.00
262;DHT22;114;48.260;10.988;2023-08-08T06:45:57;15.30;1.00
262;DHT22;114;48.260;10.988;2023-08-08T06:48:23;15.50;1.00
262;DHT22;114;48.260;10.988;2023-08-08T06:50:49;15.20;1.00
262;DHT22;114;48.260;10.988;2023-08-08T06:53:14;15.00;1.00
262;DHT22;114;48.260;10.988;2023-08-08T06:55:41;14.90;1.00
262;DHT22;114;48.260;10.988;2023-08-08T06:58:07;15.00;1.00
262;DHT22;114;48.260;10.988;2023-08-08T07:00:32;15.00;1.60
262;DHT22;114;48.260;10.988;2023-08-08T07:02:58;15.00;1.00
262;DHT22;114;48.260;10.988;2023-08-08T07:05:24;15.30;1.00
262;DHT22;114;48.260;10.988;2023-08-08T07:07:50;15.50;1.00
262;DHT22;114;48.260;10.988;2023-08-08T07:10:16;15.50;1.00
262;DHT22;114;48.260;10.988;2023-08-08T07:12:42;15.80;1.00
262;DHT22;114;48.260;10.988;2023-08-08T07:15:08;15.80;1.00
262;DHT22;114;48.260;10.988;2023-08-08T07:17:34;16.00;1.00
262;DHT22;114;48.260;10.988;2023-08-08T07:19:59;16.00;1.00
262;DHT22;114;48.260;10.988;2023-08-08T07:22:25;16.20;1.00
262;DHT22;114;48.260;10.988;2023-08-08T07:24:51;16.40;1.00
262;DHT22;114;48.260;10.988;2023-08-08T07:27:17;16.30;1.00
262;DHT22;114;48.260;10.988;2023-08-08T07:29:43;16.30;1.00
262;DHT22;114;48.260;10.988;2023-08-08T07:32:09;16.40;1.00
262;DHT22;114;48.260;10.988;2023-08-08T07:34:34;16.50;1.00
262;DHT22;114;48.260;10.988;2023-08-08T07:37:02;16.60;1.00
262;DHT22;114;48.260;10.988;2023-08-08T07:39:28;16.70;1.00
262;DHT22;114;48.260;10.988;2023-08-08T07:41:54;16.50;1.00
262;DHT22;114;48.260;10.988;2023-08-08T07:44:20;16.80;1.00
262;DHT22;114;48.260;10.988;2023-08-08T07:46:46;16.80;1.00
262;DHT22;114;48.260;10.988;2023-08-08T07:49:11;16.70;1.00
262;DHT22;114;48.260;10.988;2023-08-08T07:51:37;16.80;1.00
262;DHT22;114;48.260;10.988;2023-08-08T07:54:03;16.90;1.00
262;DHT22;114;48.260;10.988;2023-08-08T07:56:34;17.50;8.60
262;DHT22;114;48.260;10.988;2023-08-08T07:59:00;18.30;1.00
262;DHT22;114;48.260;10.988;2023-08-08T08:01:27;17.70;1.00
262;DHT22;114;48.260;10.988;2023-08-08T08:03:53;17.40;1.00
262;DHT22;114;48.260;10.988;2023-08-08T08:06:19;17.30;1.00
262;DHT22;114;48.260;10.988;2023-08-08T08:08:45;17.30;1.00
262;DHT22;114;48.260;10.988;2023-08-08T08:11:10;17.60;1.00
262;DHT22;114;48.260;10.988;2023-08-08T08:13:38;17.70;1.00
262;DHT22;114;48.260;10.988;2023-08-08T08:16:04;17.40;1.00
262;DHT22;114;48.260;10.988;2023-08-08T08:18:30;17.50;1.00
262;DHT22;114;48.260;10.988;2023-08-08T08:20:55;17.40;1.00
262;DHT22;114;48.260;10.988;2023-08-08T08:23:21;17.40;1.00
262;DHT22;114;48.260;10.988;2023-08-08T08:25:47;17.80;1.00
262;DHT22;114;48.260;10.988;2023-08-08T08:28:14;17.80;1.00
262;DHT22;114;48.260;10.988;2023-08-08T08:30:40;18.10;1.00
262;DHT22;114;48.260;10.988;2023-08-08T08:33:06;18.20;1.00
262;DHT22;114;48.260;10.988;2023-08-08T08:35:34;18.30;1.00
262;DHT22;114;48.260;10.988;2023-08-08T08:38:00;18.30;1.00
262;DHT22;114;48.260;10.988;2023-08-08T08:40:27;18.10;1.00
262;DHT22;114;48.260;10.988;2023-08-08T08:42:53;18.10;1.00
262;DHT22;114;48.260;10.988;2023-08-08T08:45:20;17.90;1.00
262;DHT22;114;48.260;10.988;2023-08-08T08:47:47;18.10;1.00
262;DHT22;114;48.260;10.988;2023-08-08T08:50:15;18.20;1.00
262;DHT22;114;48.260;10.988;2023-08-08T08:52:42;18.20;1.00
262;DHT22;114;48.260;10.988;2023-08-08T08:55:08;18.20;1.00
262;DHT22;114;48.260;10.988;2023-08-08T08:57:36;18.30;1.00
262;DHT22;114;48.260;10.988;2023-08-08T09:00:02;18.50;1.00
262;DHT22;114;48.260;10.988;2023-08-08T09:02:28;18.50;1.00
262;DHT22;114;48.260;10.988;2023-08-08T09:04:54;18.40;1.00
262;DHT22;114;48.260;10.988;2023-08-08T09:07:23;18.50;1.00
262;DHT22;114;48.260;10.988;2023-08-08T09:09:52;18.60;1.00
262;DHT22;114;48.260;10.988;2023-08-08T09:12:18;18.70;1.00
262;DHT22;114;48.260;10.988;2023-08-08T09:14:44;18.70;1.00
262;DHT22;114;48.260;10.988;2023-08-08T09:17:13;18.70;1.00
262;DHT22;114;48.260;10.988;2023-08-08T09:19:45;18.90;1.00
262;DHT22;114;48.260;10.988;2023-08-08T09:22:13;19.00;1.00
262;DHT22;114;48.260;10.988;2023-08-08T09:24:42;19.20;1.00
262;DHT22;114;48.260;10.988;2023-08-08T09:27:09;19.20;1.00
262;DHT22;114;48.260;10.988;2023-08-08T09:29:35;19.30;1.00
262;DHT22;114;48.260;10.988;2023-08-08T09:32:08;19.40;1.00
262;DHT22;114;48.260;10.988;2023-08-08T09:34:34;19.90;1.00
262;DHT22;114;48.260;10.988;2023-08-08T09:37:00;19.70;1.00
262;DHT22;114;48.260;10.988;2023-08-08T09:39:26;19.50;1.00
262;DHT22;114;48.260;10.988;2023-08-08T09:41:52;19.80;1.00
262;DHT22;114;48.260;10.988;2023-08-08T09:44:22;19.80;1.00
262;DHT22;114;48.260;10.988;2023-08-08T09:46:48;20.00;1.00
262;DHT22;114;48.260;10.988;2023-08-08T09:49:15;19.50;1.00
262;DHT22;114;48.260;10.988;2023-08-08T09:51:41;19.60;1.00
262;DHT22;114;48.260;10.988;2023-08-08T09:54:10;20.20;1.00
262;DHT22;114;48.260;10.988;2023-08-08T09:56:36;20.50;1.00
262;DHT22;114;48.260;10.988;2023-08-08T09:59:04;19.70;1.00
262;DHT22;114;48.260;10.988;2023-08-08T10:01:31;19.50;1.00
262;DHT22;114;48.260;10.988;2023-08-08T10:03:58;19.40;1.00
262;DHT22;114;48.260;10.988;2023-08-08T10:06:24;19.90;1.00
262;DHT22;114;48.260;10.988;2023-08-08T10:08:51;19.90;1.00
262;DHT22;114;48.260;10.988;2023-08-08T10:11:18;20.50;1.00
262;DHT22;114;48.260;10.988;2023-08-08T10:13:50;20.90;1.00
262;DHT22;114;48.260;10.988;2023-08-08T10:16:19;20.50;1.00
262;DHT22;114;48.260;10.988;2023-08-08T10:18:54;20.00;1.00
262;DHT22;114;48.260;10.988;2023-08-08T10:21:20;19.70;1.00
262;DHT22;114;48.260;10.988;2023-08-08T10:23:48;19.90;1.00
262;DHT22;114;48.260;10.988;2023-08-08T10:26:21;20.00;1.00
262;DHT22;114;48.260;10.988;2023-08-08T10:28:57;20.20;1.00
262;DHT22;114;48.260;10.988;2023-08-08T10:31:23;20.30;1.00
262;DHT22;114;48.260;10.988;2023-08-08T10:33:48;20.80;1.00
262;DHT22;114;48.260;10.988;2023-08-08T10:36:15;21.00;1.00
262;DHT22;114;48.260;10.988;2023-08-08T10:38:46;20.60;1.00
262;DHT22;114;48.260;10.988;2023-08-08T10:41:15;21.20;1.00
262;DHT22;114;48.260;10.988;2023-08-08T10:43:56;21.60;1.00
262;DHT22;114;48.260;10.988;2023-08-08T10:46:30;20.80;1.00
262;DHT22;114;48.260;10.988;2023-08-08T10:49:00;20.20;1.00
262;DHT22;114;48.260;10.988;2023-08-08T10:51:40;20.20;1.00
262;DHT22;114;48.260;10.988;2023-08-08T10:54:25;20.40;1.00
262;DHT22;114;48.260;10.988;2023-08-08T10:56:57;20.70;1.00
262;DHT22;114;48.260;10.988;2023-08-08T10:59:27;20.40;1.00
262;DHT22;114;48.260;10.988;2023-08-08T11:01:55;20.80;1.00
262;DHT22;114;48.260;10.988;2023-08-08T11:04:23;21.10;1.00
262;DHT22;114;48.260;10.988;2023-08-08T11:06:52;21.50;1.00
262;DHT22;114;48.260;10.988;2023-08-08T11:09:20;22.10;1.00
262;DHT22;114;48.260;10.988;2023-08-08T11:11:46;21.80;1.00
262;DHT22;114;48.260;10.988;2023-08-08T11:14:16;21.50;1.00
262;DHT22;114;48.260;10.988;2023-08-08T11:16:43;21.90;1.00
262;DHT22;114;48.260;10.988;2023-08-08T11:19:10;21.60;1.00
262;DHT22;114;48.260;10.988;2023-08-08T11:21:41;21.60;1.00
262;DHT22;114;48.260;10.988;2023-08-08T11:24:08;22.00;1.00
262;DHT22;114;48.260;10.988;2023-08-08T11:26:35;22.00;1.00
262;DHT22;114;48.260;10.988;2023-08-08T11:29:02;22.40;1.00
262;DHT22;114;48.260;10.988;2023-08-08T11:31:29;21.90;1.00
262;DHT22;114;48.260;10.988;2023-08-08T11:33:56;22.10;1.00
262;DHT22;114;48.260;10.988;2023-08-08T11:36:22;22.20;1.00
262;DHT22;114;48.260;10.988;2023-08-08T11:38:51;22.60;1.00
262;DHT22;114;48.260;10.988;2023-08-08T11:41:21;22.20;1.00
262;DHT22;114;48.260;10.988;2023-08-08T11:43:49;22.60;1.00
262;DHT22;114;48.260;10.988;2023-08-08T11:46:16;22.10;1.00
262;DHT22;114;48.260;10.988;2023-08-08T11:48:43;21.70;1.00
262;DHT22;114;48.260;10.988;2023-08-08T11:51:14;21.50;1.00
262;DHT22;114;48.260;10.988;2023-08-08T11:53:51;21.70;1.00
262;DHT22;114;48.260;10.988;2023-08-08T11:56:20;21.90;1.00
262;DHT22;114;48.260;10.988;2023-08-08T11:58:50;22.50;1.00
262;DHT22;114;48.260;10.988;2023-08-08T12:01:21;22.80;1.00
262;DHT22;114;48.260;10.988;2023-08-08T12:03:47;22.60;1.00
262;DHT22;114;48.260;10.988;2023-08-08T12:06:17;23.20;1.00
262;DHT22;114;48.260;10.988;2023-08-08T12:08:44;22.90;1.00
262;DHT22;114;48.260;10.988;2023-08-08T12:11:12;23.50;1.00
262;DHT22;114;48.260;10.988;2023-08-08T12:13:40;24.00;1.00
262;DHT22;114;48.260;10.988;2023-08-08T12:16:10;23.90;1.00
262;DHT22;114;48.260;10.988;2023-08-08T12:18:37;23.60;1.00
262;DHT22;114;48.260;10.988;2023-08-08T12:21:04;24.40;1.00
262;DHT22;114;48.260;10.988;2023-08-08T12:23:31;25.20;1.00
262;DHT22;114;48.260;10.988;2023-08-08T12:25:57;26.70;1.00
262;DHT22;114;48.260;10.988;2023-08-08T12:28:23;26.20;1.00
262;DHT22;114;48.260;10.988;2023-08-08T12:30:49;25.20;1.00
262;DHT22;114;48.260;10.988;2023-08-08T12:33:15;25.60;1.00
262;DHT22;114;48.260;10.988;2023-08-08T12:35:41;26.20;1.00
262;DHT22;114;48.260;10.988;2023-08-08T12:38:07;25.90;1.00
262;DHT22;114;48.260;10.988;2023-08-08T12:40:32;26.50;1.00
262;DHT22;114;48.260;10.988;2023-08-08T12:42:59;25.90;1.00
262;DHT22;114;48.260;10.988;2023-08-08T12:45:25;26.20;1.00
262;DHT22;114;48.260;10.988;2023-08-08T12:47:51;26.90;1.00
262;DHT22;114;48.260;10.988;2023-08-08T12:50:16;26.40;1.00
262;DHT22;114;48.260;10.988;2023-08-08T12:52:43;27.50;1.00
262;DHT22;114;48.260;10.988;2023-08-08T12:55:08;25.90;1.00
262;DHT22;114;48.260;10.988;2023-08-08T12:57:36;26.00;1.00
262;DHT22;114;48.260;10.988;2023-08-08T13:00:03;26.00;1.00
262;DHT22;114;48.260;10.988;2023-08-08T13:02:29;26.40;1.00
262;DHT22;114;48.260;10.988;2023-08-08T13:04:55;26.40;1.00
262;DHT22;114;48.260;10.988;2023-08-08T13:07:20;27.40;1.00
262;DHT22;114;48.260;10.988;2023-08-08T13:09:46;26.50;1.00
262;DHT22;114;48.260;10.988;2023-08-08T13:12:12;27.60;1.00
262;DHT22;114;48.260;10.988;2023-08-08T13:14:37;26.50;1.00
262;DHT22;114;48.260;10.988;2023-08-08T13:17:03;26.10;1.00
262;DHT22;114;48.260;10.988;2023-08-08T13:19:29;25.90;1.00
262;DHT22;114;48.260;10.988;2023-08-08T13:21:55;26.80;1.00
262;DHT22;114;48.260;10.988;2023-08-08T13:24:21;26.80;1.00
262;DHT22;114;48.260;10.988;2023-08-08T13:26:49;27.50;1.00
262;DHT22;114;48.260;10.988;2023-08-08T13:29:17;28.20;1.00
262;DHT22;114;48.260;10.988;2023-08-08T13:31:43;28.60;1.00
262;DHT22;114;48.260;10.988;2023-08-08T13:34:09;26.50;1.00
262;DHT22;114;48.260;10.988;2023-08-08T13:36:36;26.40;1.00
262;DHT22;114;48.260;10.988;2023-08-08T13:39:02;25.90;1.00
262;DHT22;114;48.260;10.988;2023-08-08T13:41:29;27.10;1.00
262;DHT22;114;48.260;10.988;2023-08-08T13:43:55;27.80;1.00
262;DHT22;114;48.260;10.988;2023-08-08T13:46:21;28.50;1.00
262;DHT22;114;48.260;10.988;2023-08-08T13:48:47;27.10;1.00
262;DHT22;114;48.260;10.988;2023-08-08T13:51:12;26.90;1.00
262;DHT22;114;48.260;10.988;2023-08-08T13:53:38;27.00;1.00
262;DHT22;114;48.260;10.988;2023-08-08T13:56:04;28.20;1.00
262;DHT22;114;48.260;10.988;2023-08-08T13:58:30;28.40;1.00
262;DHT22;114;48.260;10.988;2023-08-08T14:00:55;27.80;1.00
262;DHT22;114;48.260;10.988;2023-08-08T14:03:23;25.90;1.00
262;DHT22;114;48.260;10.988;2023-08-08T14:05:50;24.40;1.00
262;DHT22;114;48.260;10.988;2023-08-08T14:08:18;25.10;1.00
262;DHT22;114;48.260;10.988;2023-08-08T14:10:43;26.70;1.00
262;DHT22;114;48.260;10.988;2023-08-08T14:13:10;27.80;1.00
262;DHT22;114;48.260;10.988;2023-08-08T14:15:38;27.20;1.00
262;DHT22;114;48.260;10.988;2023-08-08T14:18:04;25.90;1.00
262;DHT22;114;48.260;10.988;2023-08-08T14:20:30;25.60;1.00
262;DHT22;114;48.260;10.988;2023-08-08T14:22:56;25.20;1.00
262;DHT22;114;48.260;10.988;2023-08-08T14:25:22;24.40;1.00
262;DHT22;114;48.260;10.988;2023-08-08T14:27:48;25.60;1.00
262;DHT22;114;48.260;10.988;2023-08-08T14:30:14;26.80;1.00
262;DHT22;114;48.260;10.988;2023-08-08T14:32:39;27.80;1.00
262;DHT22;114;48.260;10.988;2023-08-08T14:35:05;27.70;1.00
262;DHT22;114;48.260;10.988;2023-08-08T14:37:32;25.90;1.00
262;DHT22;114;48.260;10.988;2023-08-08T14:39:58;26.00;1.00
262;DHT22;114;48.260;10.988;2023-08-08T14:42:23;25.40;1.00
262;DHT22;114;48.260;10.988;2023-08-08T14:44:49;25.60;1.00
262;DHT22;114;48.260;10.988;2023-08-08T14:47:15;26.50;1.00
262;DHT22;114;48.260;10.988;2023-08-08T14:49:40;26.00;1.00
262;DHT22;114;48.260;10.988;2023-08-08T14:52:06;26.90;1.00
262;DHT22;114;48.260;10.988;2023-08-08T14:54:34;27.10;1.00
262;DHT22;114;48.260;10.988;2023-08-08T14:57:00;26.80;1.00
262;DHT22;114;48.260;10.988;2023-08-08T14:59:27;26.00;1.00
262;DHT22;114;48.260;10.988;2023-08-08T15:01:53;24.90;1.00
262;DHT22;114;48.260;10.988;2023-08-08T15:04:19;24.50;1.00
262;DHT22;114;48.260;10.988;2023-08-08T15:06:44;23.50;1.00
262;DHT22;114;48.260;10.988;2023-08-08T15:09:10;23.40;1.00
262;DHT22;114;48.260;10.988;2023-08-08T15:11:36;23.50;1.00
262;DHT22;114;48.260;10.988;2023-08-08T15:14:02;23.20;1.00
262;DHT22;114;48.260;10.988;2023-08-08T15:16:28;22.60;1.00
262;DHT22;114;48.260;10.988;2023-08-08T15:18:54;22.60;1.00
262;DHT22;114;48.260;10.988;2023-08-08T15:21:21;22.60;1.00
262;DHT22;114;48.260;10.988;2023-08-08T15:23:47;22.90;1.00
262;DHT22;114;48.260;10.988;2023-08-08T15:26:13;24.10;1.00
262;DHT22;114;48.260;10.988;2023-08-08T15:28:39;24.60;1.00
262;DHT22;114;48.260;10.988;2023-08-08T15:31:05;24.50;1.00
262;DHT22;114;48.260;10.988;2023-08-08T15:33:30;24.20;1.00
262;DHT22;114;48.260;10.988;2023-08-08T15:35:56;23.40;1.00
262;DHT22;114;48.260;10.988;2023-08-08T15:38:22;22.70;1.00
262;DHT22;114;48.260;10.988;2023-08-08T15:40:48;22.00;1.00
262;DHT22;114;48.260;10.988;2023-08-08T15:43:13;21.60;1.00
262;DHT22;114;48.260;10.988;2023-08-08T15:45:39;21.50;1.00
262;DHT22;114;48.260;10.988;2023-08-08T15:48:05;21.30;1.00
262;DHT22;114;48.260;10.988;2023-08-08T15:50:32;21.30;1.00
262;DHT22;114;48.260;10.988;2023-08-08T15:52:57;21.10;1.00
262;DHT22;114;48.260;10.988;2023-08-08T15:55:25;21.00;1.00
262;DHT22;114;48.260;10.988;2023-08-08T15:57:51;20.80;1.00
262;DHT22;114;48.260;10.988;2023-08-08T16:00:16;20.70;1.00
262;DHT22;114;48.260;10.988;2023-08-08T16:02:42;20.70;1.00
262;DHT22;114;48.260;10.988;2023-08-08T16:05:08;20.80;1.00
262;DHT22;114;48.260;10.988;2023-08-08T16:07:35;21.00;1.00
262;DHT22;114;48.260;10.988;2023-08-08T16:10:02;21.20;1.00
262;DHT22;114;48.260;10.988;2023-08-08T16:12:28;21.30;1.00
262;DHT22;114;48.260;10.988;2023-08-08T16:14:53;21.50;1.00
262;DHT22;114;48.260;10.988;2023-08-08T16:17:19;21.40;1.00
262;DHT22;114;48.260;10.988;2023-08-08T16:19:45;21.20;1.00
262;DHT22;114;48.260;10.988;2023-08-08T16:22:11;20.90;1.00
262;DHT22;114;48.260;10.988;2023-08-08T16:24:36;20.70;1.00